Terminal Aerodrome Forecast
Issued by NWS

Home | Current Version | Previous Version | Text Only | Print | Product List | Glossary On
Versions: 1 2 3 4 5 6 7 8 9 10 11 12 13 14 15 16 17 18 19 20 21 22 23 24 25 26 27 28 29 30 31 32 33 34 35 36 37
000
FTUS44 KFWD 180530
TAFFTW
TAF
KFTW 180530Z 1806/1906 15008KT P6SM VCSH SCT030 BKN120 OVC250
      TEMPO 1806/1809 6SM SHRA BKN035
     FM181100 13008KT P6SM BKN009
     FM181800 12008KT P6SM SCT020 BKN035
     FM182100 15008KT P6SM VCTS BKN035CB
     FM190100 18008KT P6SM SCT020 BKN130=

USA.gov is the U.S. government's official web portal to all federal, state and local government web resources and services.